createdAt,value
2023-04-09T00:00:14.899Z,6.70
2023-04-09T00:01:16.386Z,6.88
2023-04-09T00:02:17.830Z,6.13
2023-04-09T00:03:19.361Z,6.68
2023-04-09T00:04:22.439Z,6.90
2023-04-09T00:05:23.914Z,6.90
2023-04-09T00:06:25.939Z,6.07
2023-04-09T00:07:28.074Z,6.80
2023-04-09T00:08:29.622Z,6.95
2023-04-09T00:09:31.163Z,7.00
2023-04-09T00:10:32.645Z,6.97
2023-04-09T00:11:34.213Z,6.93
2023-04-09T00:12:35.727Z,7.55
2023-04-09T00:13:39.545Z,6.70
2023-04-09T00:14:41.472Z,7.13
2023-04-09T00:15:42.904Z,6.28
2023-04-09T00:16:44.999Z,6.50
2023-04-09T00:17:46.566Z,6.80
2023-04-09T00:18:48.101Z,6.50
2023-04-09T00:19:49.595Z,6.82
2023-04-09T00:20:51.355Z,7.32
2023-04-09T00:21:53.389Z,6.97
2023-04-09T00:22:56.420Z,7.05
2023-04-09T00:23:57.943Z,6.72
2023-04-09T00:24:59.428Z,7.57
2023-04-09T00:26:01.322Z,7.05
2023-04-09T00:27:02.769Z,6.95
2023-04-09T00:28:04.256Z,7.38
2023-04-09T00:29:06.065Z,7.10
2023-04-09T00:30:08.759Z,7.13
2023-04-09T00:31:10.968Z,7.35
2023-04-09T00:32:12.508Z,6.80
2023-04-09T00:33:13.966Z,6.63
2023-04-09T00:34:15.943Z,7.07
2023-04-09T00:35:17.617Z,6.90
2023-04-09T00:36:19.131Z,6.38
2023-04-09T00:37:20.647Z,6.63
2023-04-09T00:38:22.119Z,7.55
2023-04-09T00:39:24.055Z,7.13
2023-04-09T00:40:25.492Z,6.93
2023-04-09T00:41:26.953Z,6.18
2023-04-09T00:42:32.232Z,6.72
2023-04-09T00:43:34.159Z,6.90
2023-04-09T00:44:35.740Z,6.90
2023-04-09T00:45:38.103Z,7.25
2023-04-09T00:46:39.713Z,6.72
2023-04-09T00:47:43.158Z,6.55
2023-04-09T00:48:45.309Z,6.95
2023-04-09T00:49:46.746Z,6.88
2023-04-09T00:50:48.729Z,7.25
2023-04-09T00:51:50.627Z,7.05
2023-04-09T00:52:52.341Z,7.10
2023-04-09T00:53:55.300Z,7.35
2023-04-09T00:55:58.984Z,6.93
2023-04-09T00:57:00.677Z,7.90
2023-04-09T00:58:02.817Z,7.53
2023-04-09T00:59:04.827Z,7.47
2023-04-09T01:00:07.805Z,7.63
2023-04-09T01:02:11.258Z,7.55
2023-04-09T01:03:13.050Z,7.03
2023-04-09T01:04:15.089Z,7.47
2023-04-09T01:05:16.698Z,7.53
2023-04-09T01:06:32.553Z,7.53
2023-04-09T01:08:01.116Z,7.00
2023-04-09T01:09:15.438Z,6.15
2023-04-09T01:10:38.188Z,7.20
2023-04-09T01:12:02.592Z,7.22
2023-04-09T01:13:19.368Z,6.30
2023-04-09T01:14:37.413Z,7.22
2023-04-09T01:15:46.708Z,7.00
2023-04-09T01:16:57.313Z,7.30
2023-04-09T01:18:19.078Z,6.93
2023-04-09T01:19:43.961Z,6.78
2023-04-09T01:20:57.542Z,6.47
2023-04-09T01:22:00.444Z,6.57
2023-04-09T01:23:14.096Z,6.70
2023-04-09T01:24:39.372Z,6.60
2023-04-09T01:25:53.472Z,6.90
2023-04-09T01:27:06.804Z,6.95
2023-04-09T01:28:26.171Z,7.00
2023-04-09T01:29:31.681Z,6.72
2023-04-09T01:30:33.497Z,6.75
2023-04-09T01:31:38.339Z,7.20
2023-04-09T01:32:40.827Z,6.68
2023-04-09T01:33:43.325Z,6.72
2023-04-09T01:34:47.479Z,7.70
2023-04-09T01:35:50.585Z,7.03
2023-04-09T01:36:56.702Z,7.03
2023-04-09T01:37:58.458Z,7.30
2023-04-09T01:39:03.363Z,7.35
2023-04-09T01:40:05.668Z,6.97
2023-04-09T01:41:08.886Z,7.50
2023-04-09T01:42:12.751Z,6.70
2023-04-09T01:43:15.925Z,7.18
2023-04-09T01:44:18.238Z,7.00
2023-04-09T01:45:20.892Z,6.63
2023-04-09T01:46:24.454Z,6.75
2023-04-09T01:47:27.476Z,6.95
2023-04-09T01:48:31.532Z,6.63
2023-04-09T01:49:33.678Z,6.93
2023-04-09T01:50:35.657Z,6.88
2023-04-09T01:51:37.732Z,6.85
2023-04-09T01:52:39.505Z,7.10
2023-04-09T01:53:41.822Z,7.20
2023-04-09T01:54:43.769Z,7.45
2023-04-09T01:55:45.222Z,7.00
2023-04-09T01:56:48.289Z,7.10
2023-04-09T01:57:49.727Z,6.95
2023-04-09T01:58:52.942Z,6.50
2023-04-09T01:59:55.185Z,7.25
2023-04-09T02:01:03.525Z,7.38
2023-04-09T02:02:12.287Z,7.18
2023-04-09T02:03:21.797Z,6.90
2023-04-09T02:04:32.682Z,7.18
2023-04-09T02:05:41.795Z,6.90
2023-04-09T02:07:01.470Z,6.95
2023-04-09T02:08:05.593Z,6.90
2023-04-09T02:09:09.092Z,7.45
2023-04-09T02:10:13.192Z,7.07
2023-04-09T02:11:16.368Z,7.82
2023-04-09T02:12:19.647Z,7.82
2023-04-09T02:13:21.984Z,7.25
2023-04-09T02:14:26.551Z,7.20
2023-04-09T02:15:28.995Z,7.22
2023-04-09T02:16:32.193Z,7.30
2023-04-09T02:17:33.929Z,7.05
2023-04-09T02:18:35.434Z,7.55
2023-04-09T02:19:44.994Z,6.82
2023-04-09T02:20:46.412Z,6.95
2023-04-09T02:21:47.914Z,7.07
2023-04-09T02:22:49.373Z,7.28
2023-04-09T02:23:51.036Z,7.22
2023-04-09T02:24:52.475Z,7.88
2023-04-09T02:25:54.349Z,7.57
2023-04-09T02:26:55.858Z,7.55
2023-04-09T02:27:57.296Z,7.57
2023-04-09T02:28:58.728Z,7.80
2023-04-09T02:30:00.245Z,7.25
2023-04-09T02:31:01.761Z,7.20
2023-04-09T02:32:03.359Z,7.22
2023-04-09T02:33:05.211Z,7.57
2023-04-09T02:34:06.660Z,7.40
2023-04-09T02:35:08.250Z,7.50
2023-04-09T02:36:13.521Z,7.82
2023-04-09T02:37:15.064Z,7.82
2023-04-09T02:38:16.560Z,7.20
2023-04-09T02:39:17.988Z,7.57
2023-04-09T02:40:19.967Z,7.72
2023-04-09T02:41:21.441Z,7.55
2023-04-09T02:42:22.920Z,8.20
2023-04-09T02:43:24.626Z,7.65
2023-04-09T02:44:26.114Z,7.00
2023-04-09T02:45:28.019Z,7.50
2023-04-09T02:46:30.125Z,8.00
2023-04-09T02:47:31.676Z,7.20
2023-04-09T02:48:33.184Z,7.72
2023-04-09T02:49:35.180Z,7.60
2023-04-09T02:50:36.676Z,8.13
2023-04-09T02:51:38.129Z,8.40
2023-04-09T02:52:39.548Z,7.78
2023-04-09T02:53:41.768Z,7.82
2023-04-09T02:54:43.213Z,8.73
2023-04-09T02:55:44.611Z,8.68
2023-04-09T02:56:46.168Z,8.52
2023-04-09T02:57:47.609Z,8.73
2023-04-09T02:58:51.877Z,8.10
2023-04-09T02:59:53.479Z,7.97
2023-04-09T03:00:54.869Z,7.80
2023-04-09T03:01:56.355Z,8.35
2023-04-09T03:02:58.546Z,8.23
2023-04-09T03:04:01.537Z,7.78
2023-04-09T03:05:03.373Z,8.40
2023-04-09T03:06:04.869Z,8.05
2023-04-09T03:07:06.812Z,7.90
2023-04-09T03:08:08.753Z,8.20
2023-04-09T03:09:10.335Z,8.35
2023-04-09T03:10:11.742Z,8.13
2023-04-09T03:11:13.267Z,7.25
2023-04-09T03:12:14.997Z,7.93
2023-04-09T03:13:16.919Z,8.15
2023-04-09T03:14:18.388Z,7.97
2023-04-09T03:15:19.842Z,8.00
2023-04-09T03:16:21.845Z,7.75
2023-04-09T03:17:27.066Z,7.90
2023-04-09T03:18:28.633Z,7.93
2023-04-09T03:19:31.337Z,7.53
2023-04-09T03:20:32.861Z,8.20
2023-04-09T03:21:34.304Z,8.35
2023-04-09T03:22:39.315Z,8.00
2023-04-09T03:23:40.814Z,7.60
2023-04-09T03:24:42.724Z,8.25
2023-04-09T03:25:44.269Z,8.45
2023-04-09T03:26:45.818Z,7.38
2023-04-09T03:27:47.746Z,8.30
2023-04-09T03:28:49.222Z,8.10
2023-04-09T03:29:50.745Z,8.38
2023-04-09T03:30:52.803Z,8.10
2023-04-09T03:31:54.329Z,8.25
2023-04-09T03:32:55.975Z,8.75
2023-04-09T03:33:57.435Z,8.40
2023-04-09T03:34:58.838Z,8.00
2023-04-09T03:36:00.448Z,8.82
2023-04-09T03:37:01.955Z,8.20
2023-04-09T03:38:03.409Z,8.45
2023-04-09T03:39:04.923Z,8.63
2023-04-09T03:40:07.015Z,9.05
2023-04-09T03:41:08.577Z,8.70
2023-04-09T03:42:10.054Z,8.90
2023-04-09T03:43:11.525Z,8.73
2023-04-09T03:44:13.485Z,8.63
2023-04-09T03:45:14.913Z,8.85
2023-04-09T03:46:17.800Z,7.78
2023-04-09T03:49:22.238Z,7.82
2023-04-09T03:50:23.850Z,8.20
2023-04-09T03:51:25.295Z,8.57
2023-04-09T03:52:26.864Z,8.95
2023-04-09T03:53:28.763Z,8.77
2023-04-09T03:54:30.589Z,7.75
2023-04-09T03:55:32.203Z,8.68
2023-04-09T03:56:33.644Z,7.45
2023-04-09T03:57:35.684Z,8.30
2023-04-09T03:58:37.586Z,8.95
2023-04-09T03:59:39.112Z,8.63
2023-04-09T04:00:40.633Z,8.40
2023-04-09T04:01:42.638Z,9.23
2023-04-09T04:02:44.246Z,8.90
2023-04-09T04:03:46.018Z,9.52
2023-04-09T04:04:48.225Z,8.55
2023-04-09T04:05:49.760Z,9.05
2023-04-09T04:06:51.469Z,8.75
2023-04-09T04:07:53.364Z,9.40
2023-04-09T04:08:55.056Z,9.10
2023-04-09T04:09:56.614Z,9.38
2023-04-09T04:11:05.058Z,9.65
2023-04-09T04:12:06.551Z,9.35
2023-04-09T04:13:11.212Z,8.95
2023-04-09T04:14:12.683Z,9.35
2023-04-09T04:15:14.489Z,9.63
2023-04-09T04:16:16.088Z,8.70
2023-04-09T04:17:17.605Z,9.55
2023-04-09T04:18:19.033Z,9.65
2023-04-09T04:19:20.903Z,9.43
2023-04-09T04:20:22.343Z,8.70
2023-04-09T04:21:23.753Z,8.85
2023-04-09T04:22:26.204Z,8.07
2023-04-09T04:23:28.493Z,9.30
2023-04-09T04:24:29.918Z,8.32
2023-04-09T04:25:31.493Z,8.55
2023-04-09T04:26:33.005Z,8.77
2023-04-09T04:27:34.445Z,8.73
2023-04-09T04:28:37.425Z,8.73
2023-04-09T04:30:43.491Z,9.30
2023-04-09T04:31:44.985Z,8.20
2023-04-09T04:32:46.487Z,9.40
2023-04-09T04:33:48.427Z,9.40
2023-04-09T04:34:50.543Z,8.50
2023-04-09T04:35:52.107Z,9.23
2023-04-09T04:36:53.556Z,9.43
2023-04-09T04:37:55.476Z,9.52
2023-04-09T04:38:56.882Z,9.00
2023-04-09T04:39:58.388Z,9.07
2023-04-09T04:40:59.843Z,9.43
2023-04-09T04:42:01.438Z,8.55
2023-04-09T04:43:03.383Z,8.70
2023-04-09T04:44:04.884Z,9.10
2023-04-09T04:45:07.036Z,9.80
2023-04-09T04:46:08.663Z,9.05
2023-04-09T04:47:10.327Z,8.00
2023-04-09T04:48:11.791Z,8.63
2023-04-09T04:49:13.196Z,9.02
2023-04-09T04:50:14.729Z,9.55
2023-04-09T04:51:16.696Z,8.65
2023-04-09T04:52:18.183Z,8.48
2023-04-09T04:53:19.625Z,9.00
2023-04-09T04:54:21.045Z,8.85
2023-04-09T04:55:22.480Z,8.88
2023-04-09T04:56:23.902Z,8.65
2023-04-09T04:57:25.481Z,8.40
2023-04-09T04:58:26.999Z,9.32
2023-04-09T04:59:28.650Z,9.18
2023-04-09T05:00:30.074Z,9.82
2023-04-09T05:01:31.742Z,9.02
2023-04-09T05:02:33.358Z,9.27
2023-04-09T05:03:35.038Z,8.80
2023-04-09T05:04:36.726Z,8.10
2023-04-09T05:05:38.210Z,8.88
2023-04-09T05:06:40.193Z,8.90
2023-04-09T05:07:41.632Z,9.07
2023-04-09T05:08:43.133Z,8.90
2023-04-09T05:09:45.071Z,9.15
2023-04-09T05:10:46.933Z,8.60
2023-04-09T05:11:48.371Z,8.85
2023-04-09T05:12:50.326Z,8.88
2023-04-09T05:13:51.770Z,8.20
2023-04-09T05:14:53.668Z,9.23
2023-04-09T05:15:55.217Z,8.63
2023-04-09T05:16:56.715Z,9.60
2023-04-09T05:17:58.434Z,7.82
2023-04-09T05:18:59.938Z,8.38
2023-04-09T05:20:01.370Z,8.88
2023-04-09T05:21:02.880Z,8.82
2023-04-09T05:22:04.935Z,9.05
2023-04-09T05:23:06.411Z,8.98
2023-04-09T05:24:07.837Z,8.73
2023-04-09T05:25:11.111Z,8.48
2023-04-09T05:26:12.588Z,8.75
2023-04-09T05:27:14.069Z,8.82
2023-04-09T05:28:16.869Z,8.73
2023-04-09T05:29:18.354Z,8.77
2023-04-09T05:30:19.890Z,9.30
2023-04-09T05:31:21.307Z,8.10
2023-04-09T05:32:22.841Z,8.88
2023-04-09T05:33:24.324Z,7.60
2023-04-09T05:34:25.819Z,8.13
2023-04-09T05:35:27.309Z,8.70
2023-04-09T05:36:28.769Z,9.27
2023-04-09T05:37:30.428Z,8.27
2023-04-09T05:38:32.404Z,8.65
2023-04-09T05:39:33.891Z,8.55
2023-04-09T05:40:35.546Z,9.13
2023-04-09T05:41:38.691Z,8.68
2023-04-09T05:42:40.318Z,9.27
2023-04-09T05:43:42.807Z,8.68
2023-04-09T05:44:44.698Z,9.80
2023-04-09T05:45:46.214Z,8.30
2023-04-09T05:46:47.726Z,9.18
2023-04-09T05:47:49.306Z,9.18
2023-04-09T05:48:51.355Z,8.57
2023-04-09T05:49:52.960Z,9.05
2023-04-09T05:50:55.633Z,9.60
2023-04-09T05:54:01.480Z,8.27
2023-04-09T05:55:03.278Z,7.93
2023-04-09T05:56:13.413Z,9.40
2023-04-09T05:57:14.999Z,8.32
2023-04-09T05:58:18.733Z,8.05
2023-04-09T05:59:20.735Z,9.05
2023-04-09T06:00:22.228Z,9.77
2023-04-09T06:01:23.706Z,9.80
2023-04-09T06:02:25.893Z,7.90
2023-04-09T06:03:29.254Z,8.95
2023-04-09T06:04:30.989Z,9.20
2023-04-09T06:05:33.219Z,9.18
2023-04-09T06:06:34.733Z,9.45
2023-04-09T06:07:50.213Z,8.40
2023-04-09T06:08:51.704Z,9.25
2023-04-09T06:09:53.170Z,9.68
2023-04-09T06:10:54.688Z,9.13
2023-04-09T06:11:56.144Z,9.82
2023-04-09T06:12:57.569Z,9.52
2023-04-09T06:13:59.031Z,9.30
2023-04-09T06:15:00.532Z,9.95
2023-04-09T06:16:04.761Z,8.90
2023-04-09T06:17:06.282Z,10.32
2023-04-09T06:18:07.859Z,8.52
2023-04-09T06:19:09.410Z,8.15
2023-04-09T06:20:11.286Z,8.95
2023-04-09T06:21:13.678Z,9.80
2023-04-09T06:22:15.525Z,9.55
2023-04-09T06:23:17.186Z,9.48
2023-04-09T06:24:18.653Z,8.13
2023-04-09T06:25:20.239Z,8.73
2023-04-09T06:26:21.758Z,9.60
2023-04-09T06:27:23.299Z,8.52
2023-04-09T06:28:24.950Z,9.52
2023-04-09T06:29:26.403Z,9.82
2023-04-09T06:30:27.914Z,9.55
2023-04-09T06:31:29.429Z,9.30
2023-04-09T06:32:33.642Z,9.70
2023-04-09T06:33:39.253Z,8.60
2023-04-09T06:34:40.684Z,9.07
2023-04-09T06:35:42.565Z,8.32
2023-04-09T06:36:44.575Z,9.95
2023-04-09T06:37:46.021Z,8.93
2023-04-09T06:38:47.457Z,9.40
2023-04-09T06:40:00.337Z,8.60
2023-04-09T06:41:02.649Z,9.68
2023-04-09T06:42:04.604Z,9.38
2023-04-09T06:43:06.860Z,9.65
2023-04-09T06:44:08.383Z,9.50
2023-04-09T06:45:10.216Z,8.18
2023-04-09T06:46:12.473Z,9.10
2023-04-09T06:47:13.918Z,8.90
2023-04-09T06:48:15.474Z,8.93
2023-04-09T06:49:16.896Z,9.73
2023-04-09T06:50:18.416Z,8.80
2023-04-09T06:51:19.944Z,9.05
2023-04-09T06:52:21.436Z,8.75
2023-04-09T06:53:23.459Z,9.50
2023-04-09T06:54:25.074Z,9.05
2023-04-09T06:55:27.014Z,9.60
2023-04-09T06:56:28.538Z,9.60
2023-04-09T06:57:30.000Z,8.75
2023-04-09T06:58:31.608Z,10.02
2023-04-09T06:59:33.925Z,10.10
2023-04-09T07:00:35.499Z,9.10
2023-04-09T07:01:37.837Z,10.05
2023-04-09T07:02:39.662Z,9.35
2023-04-09T07:03:41.759Z,9.95
2023-04-09T07:04:43.567Z,9.82
2023-04-09T07:05:45.119Z,9.73
2023-04-09T07:06:46.909Z,9.40
2023-04-09T07:07:48.458Z,10.38
2023-04-09T07:08:50.828Z,9.55
2023-04-09T07:09:53.462Z,9.27
2023-04-09T07:10:55.013Z,9.10
2023-04-09T07:11:56.461Z,9.80
2023-04-09T07:12:57.951Z,10.40
2023-04-09T07:13:59.817Z,8.35
2023-04-09T07:15:03.079Z,9.10
2023-04-09T07:16:04.968Z,10.07
2023-04-09T07:17:06.430Z,9.30
2023-04-09T07:18:08.122Z,9.75
2023-04-09T07:19:10.021Z,9.13
2023-04-09T07:20:11.945Z,7.78
2023-04-09T07:21:13.957Z,9.05
2023-04-09T07:22:15.453Z,9.98
2023-04-09T07:23:17.339Z,9.90
2023-04-09T07:24:18.750Z,9.10
2023-04-09T07:25:21.909Z,9.45
2023-04-09T07:26:23.380Z,9.02
2023-04-09T07:27:26.415Z,9.20
2023-04-09T07:28:28.163Z,8.85
2023-04-09T07:29:29.608Z,8.55
2023-04-09T07:30:32.183Z,8.48
2023-04-09T07:31:35.907Z,8.75
2023-04-09T07:32:38.227Z,8.13
2023-04-09T07:33:39.698Z,8.95
2023-04-09T07:34:41.928Z,8.65
2023-04-09T07:35:43.446Z,8.63
2023-04-09T07:36:44.852Z,9.30
2023-04-09T07:37:46.390Z,9.05
2023-04-09T07:38:47.863Z,9.30
2023-04-09T07:39:51.266Z,8.77
2023-04-09T07:40:53.064Z,7.90
2023-04-09T07:41:54.520Z,8.57
2023-04-09T07:42:56.104Z,8.88
2023-04-09T07:43:57.587Z,8.90
2023-04-09T07:44:59.022Z,8.73
2023-04-09T07:46:00.758Z,8.13
2023-04-09T07:47:05.882Z,8.05
2023-04-09T07:48:09.290Z,8.15
2023-04-09T07:49:10.963Z,8.10
2023-04-09T07:50:12.786Z,7.72
2023-04-09T07:51:15.324Z,9.00
2023-04-09T07:52:16.825Z,8.50
2023-04-09T07:53:18.251Z,8.25
2023-04-09T07:54:21.269Z,8.38
2023-04-09T07:55:22.855Z,7.78
2023-04-09T07:56:24.360Z,7.95
2023-04-09T07:57:26.342Z,7.75
2023-04-09T07:58:28.276Z,7.55
2023-04-09T07:59:31.531Z,8.40
2023-04-09T08:00:33.164Z,7.88
2023-04-09T08:01:34.628Z,8.25
2023-04-09T08:02:36.494Z,8.13
2023-04-09T08:03:38.142Z,8.15
2023-04-09T08:04:39.910Z,8.35
2023-04-09T08:05:41.466Z,8.43
2023-04-09T08:06:42.951Z,8.13
2023-04-09T08:07:44.415Z,8.95
2023-04-09T08:08:46.139Z,7.93
2023-04-09T08:09:47.617Z,8.38
2023-04-09T08:10:49.082Z,7.43
2023-04-09T08:11:50.641Z,7.32
2023-04-09T08:12:52.112Z,6.70
2023-04-09T08:13:54.301Z,7.30
2023-04-09T08:14:56.048Z,7.13
2023-04-09T08:16:01.181Z,7.15
2023-04-09T08:17:02.757Z,7.57
2023-04-09T08:18:04.489Z,7.28
2023-04-09T08:19:06.199Z,7.03
2023-04-09T08:20:08.245Z,7.20
2023-04-09T08:21:09.691Z,6.50
2023-04-09T08:22:11.533Z,6.82
2023-04-09T08:23:13.024Z,7.25
2023-04-09T08:24:14.975Z,7.18
2023-04-09T08:25:16.719Z,7.78
2023-04-09T08:26:18.215Z,7.15
2023-04-09T08:27:19.784Z,7.40
2023-04-09T08:28:21.731Z,7.47
2023-04-09T08:29:23.230Z,8.23
2023-04-09T08:30:25.045Z,8.55
2023-04-09T08:31:27.360Z,8.57
2023-04-09T08:32:29.244Z,8.63
2023-04-09T08:33:31.768Z,8.43
2023-04-09T08:34:33.227Z,8.23
2023-04-09T08:35:34.678Z,7.88
2023-04-09T08:36:36.245Z,8.52
2023-04-09T08:37:37.767Z,8.85
2023-04-09T08:38:39.211Z,8.38
2023-04-09T08:39:40.773Z,8.02
2023-04-09T08:40:42.361Z,8.25
2023-04-09T08:41:44.431Z,7.80
2023-04-09T08:42:47.035Z,8.05
2023-04-09T08:43:57.889Z,7.35
2023-04-09T08:45:04.032Z,8.38
2023-04-09T08:46:06.093Z,8.40
2023-04-09T08:47:11.591Z,7.55
2023-04-09T08:48:13.985Z,7.80
2023-04-09T08:49:15.742Z,8.80
2023-04-09T08:50:17.314Z,8.23
2023-04-09T08:51:21.044Z,8.52
2023-04-09T08:52:32.659Z,7.65
2023-04-09T08:53:36.153Z,7.82
2023-04-09T08:54:37.982Z,7.50
2023-04-09T08:55:39.464Z,7.30
2023-04-09T08:56:40.959Z,7.75
2023-04-09T08:57:44.025Z,7.30
2023-04-09T08:58:46.918Z,5.88
2023-04-09T09:00:49.842Z,6.18
2023-04-09T09:02:11.239Z,5.85
2023-04-09T09:03:13.310Z,7.25
2023-04-09T09:04:15.008Z,7.32
2023-04-09T09:05:16.668Z,6.95
2023-04-09T09:06:22.490Z,7.20
2023-04-09T09:07:24.008Z,7.07
2023-04-09T09:08:26.716Z,7.30
2023-04-09T09:09:28.173Z,7.32
2023-04-09T09:10:40.984Z,7.45
2023-04-09T09:11:44.687Z,7.85
2023-04-09T09:12:46.111Z,7.90
2023-04-09T09:13:58.068Z,7.95
2023-04-09T09:15:00.045Z,7.32
2023-04-09T09:16:15.184Z,7.65
2023-04-09T09:18:19.473Z,7.50
2023-04-09T09:19:24.354Z,8.00
2023-04-09T09:20:27.550Z,8.32
2023-04-09T09:21:30.136Z,7.82
2023-04-09T09:22:55.255Z,7.57
2023-04-09T09:23:57.579Z,7.90
2023-04-09T09:24:59.036Z,7.50
2023-04-09T09:26:00.508Z,8.02
2023-04-09T09:27:02.705Z,7.70
2023-04-09T09:28:12.058Z,7.72
2023-04-09T09:29:13.817Z,8.38
2023-04-09T09:30:26.880Z,8.07
2023-04-09T09:31:28.619Z,7.95
2023-04-09T09:32:30.392Z,7.38
2023-04-09T09:33:33.764Z,7.60
2023-04-09T09:34:35.241Z,8.30
2023-04-09T09:35:56.893Z,7.75
2023-04-09T09:36:58.456Z,7.93
2023-04-09T09:38:06.560Z,7.85
2023-04-09T09:39:12.221Z,7.95
2023-04-09T09:40:27.835Z,7.53
2023-04-09T09:41:29.630Z,8.18
2023-04-09T09:42:31.842Z,7.38
2023-04-09T09:43:51.758Z,8.10
2023-04-09T09:44:55.032Z,7.05
2023-04-09T09:45:57.344Z,6.97
2023-04-09T09:46:58.951Z,7.53
2023-04-09T09:48:00.679Z,7.03
2023-04-09T09:49:02.408Z,7.80
2023-04-09T09:50:04.195Z,7.00
2023-04-09T09:51:11.041Z,7.97
2023-04-09T09:52:12.766Z,7.50
2023-04-09T09:53:17.105Z,7.05
2023-04-09T09:54:23.470Z,7.03
2023-04-09T09:55:29.036Z,7.38
2023-04-09T09:56:33.962Z,6.85
2023-04-09T09:57:41.721Z,6.55
2023-04-09T09:58:56.409Z,6.65
2023-04-09T10:00:04.225Z,7.10
2023-04-09T10:01:11.284Z,7.07
2023-04-09T10:02:19.173Z,6.88
2023-04-09T10:03:27.649Z,6.93
2023-04-09T10:04:32.410Z,6.68
2023-04-09T10:05:36.676Z,6.55
2023-04-09T10:06:38.786Z,6.70
2023-04-09T10:07:41.044Z,6.32
2023-04-09T10:08:42.779Z,6.45
2023-04-09T10:09:48.776Z,6.93
2023-04-09T10:10:52.424Z,6.03
2023-04-09T10:11:56.009Z,6.20
2023-04-09T10:12:57.978Z,7.00
2023-04-09T10:13:59.731Z,6.57
2023-04-09T10:15:05.131Z,6.70
2023-04-09T10:16:07.594Z,6.45
2023-04-09T10:17:09.245Z,6.53
2023-04-09T10:18:10.829Z,6.80
2023-04-09T10:19:14.712Z,6.57
2023-04-09T10:20:27.531Z,6.78
2023-04-09T10:21:47.695Z,6.13
2023-04-09T10:22:51.782Z,6.70
2023-04-09T10:23:53.999Z,6.35
2023-04-09T10:24:56.295Z,6.00
2023-04-09T10:25:57.752Z,6.53
2023-04-09T10:27:10.287Z,7.18
2023-04-09T10:28:18.429Z,5.90
2023-04-09T10:29:29.169Z,6.78
2023-04-09T10:30:37.304Z,7.22
2023-04-09T10:32:03.158Z,6.50
2023-04-09T10:33:15.922Z,6.03
2023-04-09T10:34:21.405Z,6.60
2023-04-09T10:35:26.877Z,6.72
2023-04-09T10:36:31.458Z,6.82
2023-04-09T10:37:35.518Z,6.60
2023-04-09T10:38:40.605Z,6.65
2023-04-09T10:39:47.746Z,6.97
2023-04-09T10:40:50.956Z,5.97
2023-04-09T10:41:54.339Z,6.35
2023-04-09T10:42:58.124Z,5.78
2023-04-09T10:43:59.547Z,6.20
2023-04-09T10:45:12.391Z,5.43
2023-04-09T10:46:31.168Z,5.90
2023-04-09T10:47:34.556Z,6.07
2023-04-09T10:48:36.061Z,6.10
2023-04-09T10:49:41.877Z,6.22
2023-04-09T10:50:44.688Z,5.85
2023-04-09T10:51:52.175Z,6.13
2023-04-09T10:52:56.497Z,5.63
2023-04-09T10:53:57.977Z,5.55
2023-04-09T10:54:59.674Z,5.10
2023-04-09T10:56:01.387Z,5.07
2023-04-09T10:57:08.917Z,5.20
2023-04-09T10:58:13.601Z,5.32
2023-04-09T10:59:15.532Z,4.85
2023-04-09T11:00:18.800Z,4.80
2023-04-09T11:01:22.478Z,4.43
2023-04-09T11:02:26.810Z,4.93
2023-04-09T11:03:31.984Z,5.97
2023-04-09T11:04:59.308Z,6.32
2023-04-09T11:07:11.543Z,5.70
2023-04-09T11:08:14.422Z,5.93
2023-04-09T11:10:17.826Z,5.10
2023-04-09T11:11:26.460Z,5.03
2023-04-09T11:12:27.878Z,4.50
2023-04-09T11:13:31.081Z,4.60
2023-04-09T11:14:33.969Z,4.72
2023-04-09T11:15:36.779Z,5.90
2023-04-09T11:16:38.263Z,5.80
2023-04-09T11:17:39.783Z,5.65
2023-04-09T11:18:41.321Z,4.97
2023-04-09T11:19:44.076Z,5.18
2023-04-09T11:20:46.185Z,4.70
2023-04-09T11:21:48.404Z,4.50
2023-04-09T11:22:51.970Z,4.63
2023-04-09T11:23:53.655Z,4.75
2023-04-09T11:24:55.310Z,4.88
2023-04-09T11:25:56.825Z,5.38
2023-04-09T11:26:58.321Z,5.32
2023-04-09T11:28:02.240Z,5.50
2023-04-09T11:29:09.705Z,5.18
2023-04-09T11:30:11.509Z,5.30
2023-04-09T11:31:13.038Z,4.85
2023-04-09T11:32:14.580Z,5.13
2023-04-09T11:33:18.281Z,4.60
2023-04-09T11:34:21.134Z,4.78
2023-04-09T11:35:23.736Z,4.65
2023-04-09T11:36:27.089Z,5.03
2023-04-09T11:37:28.570Z,4.72
2023-04-09T11:38:31.357Z,5.32
2023-04-09T11:39:36.580Z,4.85
2023-04-09T11:40:47.690Z,4.80
2023-04-09T11:41:49.166Z,5.22
2023-04-09T11:42:52.617Z,5.20
2023-04-09T11:43:54.040Z,5.63
2023-04-09T11:44:55.907Z,5.32
2023-04-09T11:45:57.825Z,5.45
2023-04-09T11:47:00.021Z,4.65
2023-04-09T11:48:02.575Z,4.95
2023-04-09T11:49:04.363Z,4.88
2023-04-09T11:50:10.436Z,5.00
2023-04-09T11:51:12.370Z,5.03
2023-04-09T11:52:16.550Z,4.88
2023-04-09T11:53:19.687Z,4.65
2023-04-09T11:54:21.326Z,4.68
2023-04-09T11:55:33.583Z,4.88
2023-04-09T11:56:36.345Z,4.93
2023-04-09T11:57:41.548Z,4.68
2023-04-09T11:58:47.615Z,4.38
2023-04-09T11:59:49.149Z,4.82
2023-04-09T12:00:56.577Z,4.88
2023-04-09T12:01:58.830Z,4.72
2023-04-09T12:03:05.481Z,4.60
2023-04-09T12:04:20.941Z,4.88
2023-04-09T12:05:25.107Z,5.15
2023-04-09T12:06:27.656Z,5.32
2023-04-09T12:07:33.676Z,5.25
2023-04-09T12:08:36.323Z,5.05
2023-04-09T12:09:47.863Z,4.60
2023-04-09T12:10:50.492Z,5.03
2023-04-09T12:11:53.437Z,4.85
2023-04-09T12:12:55.274Z,4.72
2023-04-09T12:14:03.456Z,4.80
2023-04-09T12:15:12.497Z,5.35
2023-04-09T12:17:16.530Z,4.25
2023-04-09T12:18:17.941Z,4.78
2023-04-09T12:19:21.127Z,4.75
2023-04-09T12:20:49.820Z,4.68
2023-04-09T12:21:56.352Z,4.60
2023-04-09T12:23:00.269Z,4.65
2023-04-09T12:24:01.728Z,4.70
2023-04-09T12:25:03.272Z,4.53
2023-04-09T12:26:04.941Z,4.68
2023-04-09T12:27:06.668Z,4.35
2023-04-09T12:28:09.539Z,4.80
2023-04-09T12:30:12.473Z,4.93
2023-04-09T12:31:13.993Z,4.63
2023-04-09T12:32:15.435Z,4.90
2023-04-09T12:33:17.050Z,4.88
2023-04-09T12:34:18.537Z,4.70
2023-04-09T12:35:21.399Z,4.57
2023-04-09T12:37:25.570Z,4.20
2023-04-09T12:38:27.255Z,4.60
2023-04-09T12:39:28.717Z,4.60
2023-04-09T12:40:30.524Z,4.13
2023-04-09T12:41:32.051Z,4.18
2023-04-09T12:42:33.581Z,4.55
2023-04-09T12:43:35.302Z,4.68
2023-04-09T12:44:37.287Z,4.97
2023-04-09T12:45:39.234Z,4.60
2023-04-09T12:46:40.740Z,4.90
2023-04-09T12:47:43.210Z,4.30
2023-04-09T12:48:44.942Z,4.30
2023-04-09T12:49:46.923Z,4.50
2023-04-09T12:50:48.616Z,4.90
2023-04-09T12:51:51.133Z,4.80
2023-04-09T12:52:52.560Z,5.03
2023-04-09T12:54:00.919Z,5.00
2023-04-09T12:55:03.446Z,4.70
2023-04-09T12:56:05.336Z,4.65
2023-04-09T12:57:08.230Z,4.50
2023-04-09T12:59:11.302Z,4.60
2023-04-09T13:00:13.573Z,4.97
2023-04-09T13:01:15.210Z,4.97
2023-04-09T13:02:17.014Z,4.78
2023-04-09T13:03:18.863Z,4.68
2023-04-09T13:04:20.724Z,5.07
2023-04-09T13:05:22.256Z,4.60
2023-04-09T13:06:23.770Z,5.03
2023-04-09T13:07:29.152Z,4.70
2023-04-09T13:08:31.196Z,4.72
2023-04-09T13:09:32.711Z,4.10
2023-04-09T13:10:34.335Z,5.13
2023-04-09T13:11:35.773Z,5.15
2023-04-09T13:12:37.402Z,4.93
2023-04-09T13:13:40.370Z,5.00
2023-04-09T13:14:47.338Z,4.60
2023-04-09T13:15:48.785Z,4.70
2023-04-09T13:16:52.419Z,4.32
2023-04-09T13:17:54.018Z,4.60
2023-04-09T13:18:55.474Z,4.97
2023-04-09T13:19:56.959Z,4.80
2023-04-09T13:20:58.401Z,4.28
2023-04-09T13:21:59.859Z,4.22
2023-04-09T13:23:02.197Z,4.45
2023-04-09T13:24:04.929Z,4.68
2023-04-09T13:25:06.826Z,4.50
2023-04-09T13:26:08.225Z,4.90
2023-04-09T13:27:11.196Z,4.65
2023-04-09T13:28:12.782Z,5.00
2023-04-09T13:29:14.219Z,4.40
2023-04-09T13:30:16.022Z,4.68
2023-04-09T13:31:18.253Z,4.70
2023-04-09T13:32:21.871Z,4.60
2023-04-09T13:33:23.348Z,4.40
2023-04-09T13:34:25.095Z,4.70
2023-04-09T13:35:27.196Z,4.50
2023-04-09T13:36:29.343Z,4.32
2023-04-09T13:37:30.944Z,4.47
2023-04-09T13:38:32.377Z,4.57
2023-04-09T13:39:34.118Z,4.55
2023-04-09T13:40:35.715Z,5.00
2023-04-09T13:41:37.729Z,4.40
2023-04-09T13:42:39.121Z,4.95
2023-04-09T13:43:40.623Z,4.55
2023-04-09T13:44:44.673Z,4.60
2023-04-09T13:45:47.018Z,4.65
2023-04-09T13:46:48.584Z,4.90
2023-04-09T13:47:50.086Z,5.05
2023-04-09T13:48:51.819Z,4.72
2023-04-09T13:49:53.480Z,5.38
2023-04-09T13:50:55.016Z,5.10
2023-04-09T13:51:56.508Z,4.85
2023-04-09T13:52:58.096Z,4.82
2023-04-09T13:53:59.547Z,5.10
2023-04-09T13:55:01.411Z,4.95
2023-04-09T13:56:02.934Z,4.20
2023-04-09T13:57:04.408Z,4.75
2023-04-09T13:58:06.084Z,4.40
2023-04-09T13:59:07.554Z,4.55
2023-04-09T14:00:09.890Z,4.53
2023-04-09T14:01:11.870Z,4.63
2023-04-09T14:02:13.411Z,5.40
2023-04-09T14:03:15.245Z,4.68
2023-04-09T14:04:17.578Z,4.22
2023-04-09T14:05:19.184Z,4.72
2023-04-09T14:06:20.999Z,4.85
2023-04-09T14:07:22.918Z,5.00
2023-04-09T14:08:24.448Z,4.68
2023-04-09T14:09:26.059Z,5.35
2023-04-09T14:10:27.865Z,5.25
2023-04-09T14:11:29.411Z,4.88
2023-04-09T14:12:31.004Z,4.72
2023-04-09T14:13:32.967Z,5.00
2023-04-09T14:14:34.528Z,4.93
2023-04-09T14:15:36.146Z,5.53
2023-04-09T14:16:37.802Z,4.97